Latest Weather Observations for Richmond

IDN60801

Issued at 10:32 am EST Thursday 2 July 2015 (issued every 30 minutes, with the page automatically refreshed every 10 minutes)

About weather observations | Map of weather stations | Latest weather observations for NSW | Other Formats
Station Details ID: 067105 Name: RICHMOND RAAF Lat: -33.60 Lon: 150.78 Height: 19.0 m
Data from the previous 72 hours. | See also: Recent months at Richmond
Date/Time
EST
Temp
°C
App
Temp
°C
Dew
Point
Rel
Hum
%
Delta-T
°C
Wind Press
QNH
hPa
Press
MSL
hPa
Rain
since 9 am
mm
Dir
 
Spd
km/h
Gust
km/h
Spd
kts
Gust
kts
02/10:30am 10.4 7.4 7.8 84 1.2 NW 13 20 7 11 1020.6 1020.6 0.0
02/10:00am 7.7 5.8 6.8 94 0.4 N 6 7 3 4 1020.8 1020.8 0.0
02/09:30am 5.8 4.4 5.5 98 0.1 N 2 7 1 4 1021.0 1021.0 0.0
02/09:00am 4.5 2.5 4.2 98 0.1 NNE 4 7 2 4 1021.1 1021.1 0.2
02/08:30am 3.6 1.0 3.3 98 0.1 NW 6 7 3 4 1021.0 1021.0 0.2
02/08:08am 3.5 2.0 3.2 98 0.1 CALM 0 0 0 0 1021.2 1021.2 0.2
02/08:07am 3.5 2.0 3.2 98 0.1 CALM 0 0 0 0 1021.3 1021.3 0.2
02/08:00am 3.2 0.9 2.9 98 0.1 NW 4 9 2 5 1021.2 1021.2 0.2
02/07:41am 2.7 -0.2 2.4 98 0.1 NW 7 11 4 6 1021.1 1021.1 0.2
02/07:30am 2.4 0.0 2.1 98 0.1 NNW 4 7 2 4 1021.1 1021.1 0.2
02/07:00am 1.9 -0.2 1.6 98 0.1 E 2 7 1 4 1021.0 1021.0 0.2
02/06:30am 1.7 -1.2 1.4 98 0.1 NNW 6 7 3 4 1020.9 1020.9 0.2
02/06:00am 2.1 -0.4 1.8 98 0.1 WNW 4 7 2 4 1020.6 1020.6 0.2
02/05:30am 2.3 0.6 2.0 98 0.1 CALM 0 4 0 2 1020.8 1020.8 0.2
02/05:00am 2.3 -0.5 2.0 98 0.1 NNE 6 7 3 4 1020.6 1020.6 0.2
02/04:30am 2.4 0.7 2.1 98 0.1 CALM 0 0 0 0 1020.4 1020.4 0.2
02/04:00am 2.8 -0.1 2.5 98 0.1 N 7 11 4 6 1020.9 1020.9 0.2
02/03:30am 2.6 1.0 2.3 98 0.1 CALM 0 6 0 3 1020.9 1020.9 0.2
02/03:00am 3.0 0.3 2.7 98 0.1 ESE 6 9 3 5 1021.1 1021.1 0.0
02/02:30am 3.3 1.0 3.0 98 0.1 NE 4 7 2 4 1021.4 1021.4 0.0
02/02:00am 3.2 0.9 2.9 98 0.1 NNW 4 7 2 4 1021.2 1021.2 0.0
02/01:30am 3.0 0.3 2.7 98 0.1 WNW 6 7 3 4 1021.5 1021.5 0.0
02/01:00am 3.3 1.8 3.0 98 0.1 CALM 0 0 0 0 1021.6 1021.6 0.0
02/12:30am 3.3 1.4 3.0 98 0.1 N 2 6 1 3 1022.0 1022.0 0.0
02/12:00am 3.8 1.3 3.5 98 0.1 N 6 9 3 5 1022.3 1022.3 0.0
 
Date/Time
EST
Temp
°C
App
Temp
°C
Dew
Point
Rel
Hum
%
Delta-T
°C
Wind Press
QNH
hPa
Press
MSL
hPa
Rain
since 9 am
mm
Dir
 
Spd
km/h
Gust
km/h
Spd
kts
Gust
kts
01/11:53pm 3.6 2.2 3.3 98 0.1 CALM 0 6 0 3 1022.1 1022.1 0.0
01/11:50pm 3.3 1.8 3.0 98 0.1 CALM 0 0 0 0 1022.1 1022.1 0.0
01/11:36pm 3.5 0.9 3.2 98 0.1 N 6 7 3 4 1022.4 1022.4 0.0
01/11:30pm 3.5 0.7 3.2 98 0.1 NNE 7 9 4 5 1022.5 1022.5 0.0
01/11:22pm 4.4 1.8 4.1 98 0.1 ESE 7 9 4 5 1022.7 1022.7 0.0
01/11:00pm 4.3 1.8 4.0 98 0.1 S 6 7 3 4 1023.0 1023.0 0.0
01/10:34pm 4.8 3.6 4.5 98 0.1 CALM 0 0 0 0 1023.1 1023.2 0.0
01/10:30pm 4.5 3.2 4.2 98 0.1 CALM 0 0 0 0 1022.9 1022.9 0.0
01/10:00pm 6.2 5.3 5.9 98 0.1 CALM 0 0 0 0 1022.5 1022.5 0.0
01/09:42pm 5.7 3.5 5.4 98 0.1 N 6 9 3 5 1022.5 1022.5 0.0
01/09:36pm 6.1 3.4 5.8 98 0.1 N 9 9 5 5 1022.7 1022.7 0.0
01/09:33pm 6.2 3.6 5.9 98 0.1 N 9 9 5 5 1022.7 1022.7 0.0
01/09:30pm 6.1 3.4 5.8 98 0.1 N 9 9 5 5 1022.7 1022.7 0.0
01/09:07pm 6.3 5.0 6.0 98 0.1 ESE 2 6 1 3 1023.2 1023.3 0.0
01/09:00pm 6.7 4.5 6.4 98 0.1 ESE 7 9 4 5 1023.1 1023.2 0.0
01/08:58pm 7.2 5.2 6.9 98 0.1 ESE 7 11 4 6 1023.2 1023.3 0.0
01/08:30pm 7.4 6.7 7.1 98 0.1 CALM 0 0 0 0 1023.5 1023.6 0.0
01/08:00pm 7.7 7.1 7.4 98 0.1 CALM 0 0 0 0 1023.7 1023.8 0.0
01/07:56pm 8.3 7.8 8.0 98 0.1 CALM 0 0 0 0 1023.6 1023.7 0.0
01/07:44pm 7.7 7.1 7.4 98 0.1 CALM 0 0 0 0 1023.4 1023.5 0.0
01/07:42pm 8.3 7.8 8.0 98 0.1 CALM 0 0 0 0 1023.4 1023.5 0.0
01/07:30pm 8.3 7.8 8.0 98 0.1 CALM 0 0 0 0 1023.4 1023.5 0.0
01/07:12pm 8.1 7.5 7.5 96 0.3 CALM 0 0 0 0 1023.2 1023.3 0.0
01/07:00pm 8.4 7.9 7.8 96 0.3 CALM 0 0 0 0 1023.2 1023.3 0.0
01/06:50pm 8.7 8.3 8.1 96 0.3 CALM 0 6 0 3 1023.1 1023.2 0.0
01/06:30pm 9.6 8.6 8.8 95 0.4 W 4 6 2 3 1023.1 1023.2 0.0
01/06:00pm 10.0 8.3 8.4 90 0.8 WNW 7 9 4 5 1022.8 1022.8 0.0
01/05:30pm 11.0 9.5 9.3 89 0.9 WNW 7 7 4 4 1022.6 1022.6 0.0
01/05:00pm 12.4 10.9 9.1 80 1.7 NW 7 9 4 5 1022.4 1022.4 0.0
01/04:30pm 13.6 12.1 9.1 74 2.3 NW 7 9 4 5 1022.4 1022.4 0.0
01/04:00pm 15.2 15.1 9.3 68 3.0 CALM 0 0 0 0 1022.5 1022.5 0.0
01/03:30pm 14.9 14.4 9.3 69 2.9 NW 2 7 1 4 1022.6 1022.6 0.0
01/03:00pm 15.0 13.8 9.6 70 2.8 WNW 6 9 3 5 1022.7 1022.7 0.0
01/02:30pm 14.8 13.5 9.2 69 2.9 NW 6 11 3 6 1022.9 1022.9 0.0
01/02:00pm 14.6 13.4 9.4 71 2.7 NNE 6 9 3 5 1023.3 1023.4 0.0
01/01:30pm 14.3 12.9 9.7 74 2.4 NNE 7 13 4 7 1023.8 1023.9 0.0
01/01:00pm 13.5 12.2 9.9 79 1.8 NE 7 9 4 5 1024.4 1024.5 0.0
01/12:30pm 12.6 11.3 9.2 80 1.7 SE 6 9 3 5 1024.9 1025.0 0.0
01/12:00pm 12.3 10.9 9.0 80 1.6 SSE 6 9 3 5 1025.1 1025.2 0.0
01/11:45am 12.2 10.7 9.0 81 1.6 SSE 7 9 4 5 1025.3 1025.4 0.0
01/11:30am 12.0 10.1 9.2 83 1.4 SE 9 13 5 7 1025.7 1025.8 0.0
01/11:00am 11.8 10.0 9.4 85 1.2 SSE 9 13 5 7 1026.2 1026.3 0.0
01/10:30am 11.4 9.7 9.8 90 0.8 SSE 9 13 5 7 1026.5 1026.6 0.0
01/10:14am 11.8 10.6 10.4 91 0.7 ESE 7 11 4 6 1026.4 1026.5 0.0
01/10:00am 11.9 10.9 11.0 94 0.5 SE 7 11 4 6 1026.4 1026.5 0.0
01/09:30am 11.7 11.0 11.4 98 0.2 SE 6 9 3 5 1026.3 1026.3 0.0
01/09:06am 11.4 11.0 11.1 98 0.2 NNE 4 9 2 5 1026.3 1026.3 0.0
01/09:00am 10.9 9.8 10.7 99 0.1 NE 7 9 4 5 1026.2 1026.2 2.6
01/08:50am 10.6 9.4 10.4 99 0.1 N 7 7 4 4 1026.2 1026.2 2.6
01/08:40am 10.3 9.2 10.1 99 0.1 N 6 9 3 5 1026.1 1026.1 2.6
01/08:30am 9.9 9.9 9.8 99 0.1 CALM 0 0 0 0 1026.3 1026.3 2.6
01/08:27am 10.0 10.0 9.9 99 0.1 CALM 0 0 0 0 1026.3 1026.3 2.6
01/08:16am 10.1 10.1 9.9 99 0.1 CALM 0 0 0 0 1026.5 1026.5 2.6
01/08:14am 10.1 10.1 9.9 99 0.1 CALM 0 0 0 0 1026.5 1026.5 2.6
01/08:00am 9.8 9.4 9.7 99 0.0 WNW 2 6 1 3 1026.4 1026.4 2.6
01/07:30am 9.0 8.7 8.7 98 0.1 CALM 0 0 0 0 1026.1 1026.1 2.6
01/07:00am 9.0 7.4 8.7 98 0.1 NNE 7 9 4 5 1025.7 1025.7 2.6
01/06:57am 9.0 7.4 8.7 98 0.1 N 7 9 4 5 1025.6 1025.6 2.6
01/06:47am 9.3 8.7 9.0 98 0.1 ENE 2 9 1 5 1025.6 1025.6 2.6
01/06:30am 9.8 9.7 9.5 98 0.1 CALM 0 0 0 0 1025.5 1025.5 2.6
01/06:00am 10.1 10.1 9.8 98 0.1 CALM 0 6 0 3 1025.3 1025.3 2.6
01/05:30am 10.0 10.0 9.7 98 0.2 CALM 0 0 0 0 1025.2 1025.2 2.0
01/05:00am 10.1 9.3 9.8 98 0.1 ESE 4 7 2 4 1024.9 1024.9 2.0
01/04:30am 10.1 10.1 9.8 98 0.2 CALM 0 0 0 0 1025.0 1025.0 0.8
01/04:00am 9.9 9.8 9.6 98 0.1 CALM 0 0 0 0 1024.8 1024.8 0.4
01/03:30am 9.9 9.8 9.6 98 0.1 CALM 0 6 0 3 1025.0 1025.0 0.2
01/03:25am 10.0 9.2 9.7 98 0.2 W 4 6 2 3 1025.0 1025.0 0.2
01/03:24am 10.0 9.2 9.7 98 0.2 W 4 7 2 4 1025.1 1025.1 0.2
01/03:00am 9.6 9.1 9.3 98 0.1 W 2 6 1 3 1025.1 1025.1 0.2
01/02:30am 9.4 9.2 9.1 98 0.1 CALM 0 0 0 0 1025.1 1025.1 0.2
01/02:11am 9.5 9.3 9.2 98 0.1 CALM 0 6 0 3 1025.0 1025.0 0.2
01/02:00am 9.3 7.9 9.0 98 0.1 ENE 6 7 3 4 1025.1 1025.1 0.2
01/01:30am 9.4 8.8 9.1 98 0.1 NNW 2 7 1 4 1025.1 1025.1 0.2
01/01:00am 9.5 8.2 9.2 98 0.1 N 6 7 3 4 1025.0 1025.0 0.2
01/12:56am 9.5 8.2 9.2 98 0.1 W 6 7 3 4 1024.9 1024.9 0.2
01/12:47am 9.7 8.8 9.4 98 0.1 SW 4 6 2 3 1024.9 1024.9 0.2
01/12:35am 9.8 9.7 9.5 98 0.1 CALM 0 0 0 0 1024.8 1024.8 0.2
01/12:30am 9.8 9.7 9.5 98 0.1 CALM 0 6 0 3 1024.8 1024.8 0.2
01/12:00am 10.2 10.2 9.9 98 0.2 CALM 0 0 0 0 1024.9 1024.9 0.2
 
Date/Time
EST
Temp
°C
App
Temp
°C
Dew
Point
Rel
Hum
%
Delta-T
°C
Wind Press
QNH
hPa
Press
MSL
hPa
Rain
since 9 am
mm
Dir
 
Spd
km/h
Gust
km/h
Spd
kts
Gust
kts
30/11:47pm 10.3 10.4 10.0 98 0.2 CALM 0 0 0 0 1025.0 1025.0 0.2
30/11:38pm 10.4 10.5 10.1 98 0.2 CALM 0 0 0 0 1025.0 1025.0 0.2
30/11:30pm 10.3 10.4 10.0 98 0.2 CALM 0 0 0 0 1025.1 1025.1 0.2
30/11:17pm 10.5 10.6 10.2 98 0.2 CALM 0 0 0 0 1025.2 1025.2 0.2
30/11:00pm 10.5 10.6 10.0 97 0.3 CALM 0 0 0 0 1025.3 1025.3 0.2
30/10:30pm 10.8 10.6 10.5 98 0.2 SSW 2 9 1 5 1025.5 1025.5 0.2
30/10:00pm 11.0 10.4 10.4 96 0.3 S 4 6 2 3 1025.7 1025.7 0.2
30/09:30pm 11.1 10.2 10.5 96 0.3 SSW 6 9 3 5 1025.7 1025.7 0.2
30/09:00pm 11.7 10.4 11.2 97 0.3 SSW 9 13 5 7 1025.7 1025.7 0.2
30/08:30pm 12.2 12.0 11.9 98 0.2 WSW 4 13 2 7 1025.5 1025.5 0.2
30/08:00pm 11.9 12.2 11.0 94 0.5 CALM 0 0 0 0 1025.4 1025.4 0.2
30/07:30pm 12.2 11.4 11.1 93 0.6 SSW 6 6 3 3 1025.2 1025.2 0.2
30/07:00pm 12.6 12.0 11.7 94 0.5 SW 6 11 3 6 1025.3 1025.3 0.2
30/06:30pm 12.9 12.3 11.8 93 0.6 NNE 6 9 3 5 1025.2 1025.2 0.2
30/06:00pm 13.3 13.8 11.7 90 0.8 CALM 0 0 0 0 1025.0 1025.0 0.2
30/05:30pm 13.2 13.6 11.4 89 1.0 CALM 0 0 0 0 1025.0 1025.0 0.2
30/05:00pm 13.8 13.8 11.3 85 1.3 WNW 2 6 1 3 1024.8 1024.8 0.2
30/04:30pm 14.5 13.7 11.1 80 1.8 SW 6 6 3 3 1024.8 1024.8 0.2
30/04:00pm 15.8 14.9 11.4 75 2.4 SSW 7 9 4 5 1024.8 1024.8 0.2
30/03:30pm 16.3 16.4 11.5 73 2.6 S 2 7 1 4 1024.8 1024.8 0.2
30/03:00pm 15.7 15.4 11.3 75 2.4 SSW 4 6 2 3 1024.9 1024.9 0.0
30/02:30pm 15.6 15.2 11.2 75 2.4 N 4 7 2 4 1025.1 1025.1 0.0
30/02:00pm 14.9 13.9 10.3 74 2.4 NNW 6 9 3 5 1025.4 1025.4 0.0
30/01:30pm 14.5 13.9 10.5 77 2.1 NE 4 6 2 3 1025.7 1025.7 0.0
30/01:00pm 13.4 12.8 10.4 82 1.6 E 4 6 2 3 1026.3 1026.3 0.0
30/12:30pm 12.5 12.2 10.0 85 1.3 SE 2 6 1 3 1026.9 1027.0 0.0
30/12:00pm 11.5 10.2 9.9 90 0.8 SE 7 9 4 5 1027.3 1027.4 0.0
30/11:30am 11.0 11.1 10.2 95 0.4 CALM 0 2 0 1 1027.9 1028.0 0.0
30/11:00am 9.9 9.8 9.6 98 0.1 CALM 0 6 0 3 1028.6 1028.7 0.0
30/10:30am 9.5 7.6 9.2 98 0.1 NNE 9 13 5 7 1029.1 1029.2 0.0
30/10:00am 8.8 7.3 8.5 98 0.1 ESE 6 9 3 5 1029.4 1029.5 0.0
30/09:50am 8.4 6.6 8.1 98 0.1 SE 7 9 4 5 1029.5 1029.6 0.0
30/09:49am 8.4 6.6 8.1 98 0.1 SE 7 11 4 6 1029.6 1029.7 0.0
30/09:30am 7.7 5.8 7.4 98 0.1 SSE 7 9 4 5 1029.8 1029.9 0.0
30/09:02am 7.2 5.2 6.9 98 0.1 SW 7 15 4 8 1029.6 1029.7 0.0
30/09:00am 7.2 5.2 6.9 98 0.1 WSW 7 15 4 8 1029.7 1029.8 0.0
30/08:50am 7.2 5.3 6.9 98 0.1 ENE 6 11 3 6 1029.8 1029.9 0.0
30/08:47am 7.1 5.0 6.8 98 0.1 ENE 7 11 4 6 1029.4 1029.5 0.0
30/08:30am 6.7 5.1 6.4 98 0.1 WNW 4 7 2 4 1029.7 1029.8 0.0
30/08:00am 6.4 5.5 6.1 98 0.1 CALM 0 0 0 0 1029.4 1029.5 0.0
30/07:42am 6.1 5.1 5.8 98 0.1 CALM 0 0 0 0 1029.4 1029.5 0.0
30/07:30am 6.0 5.0 5.7 98 0.1 CALM 0 0 0 0 1029.4 1029.5 0.0
30/07:00am 5.9 4.9 5.6 98 0.1 CALM 0 0 0 0 1029.1 1029.2 0.0
30/06:30am 6.0 5.0 5.7 98 0.1 CALM 0 0 0 0 1029.0 1029.1 0.0
30/06:00am 6.0 5.0 5.7 98 0.1 CALM 0 0 0 0 1028.7 1028.8 0.0
30/05:30am 5.9 4.9 5.6 98 0.1 CALM 0 0 0 0 1028.7 1028.8 0.0
30/05:00am 6.6 5.8 6.3 98 0.1 CALM 0 0 0 0 1028.7 1028.8 0.0
30/04:30am 6.6 5.8 6.3 98 0.1 CALM 0 0 0 0 1028.4 1028.5 0.0
30/04:00am 6.3 5.4 6.0 98 0.1 CALM 0 0 0 0 1028.5 1028.6 0.0
30/03:30am 6.2 3.9 5.9 98 0.1 ENE 7 9 4 5 1028.7 1028.8 0.0
30/03:00am 6.3 5.4 6.0 98 0.1 CALM 0 0 0 0 1029.1 1029.2 0.0
30/02:30am 6.4 5.5 6.1 98 0.1 CALM 0 0 0 0 1029.2 1029.3 0.0
30/02:00am 6.3 5.4 6.0 98 0.1 CALM 0 0 0 0 1029.2 1029.3 0.0
30/01:30am 6.2 5.3 5.9 98 0.1 CALM 0 0 0 0 1029.5 1029.6 0.0
30/01:00am 6.1 5.1 5.8 98 0.1 CALM 0 0 0 0 1029.4 1029.5 0.0
30/12:30am 6.5 5.6 6.2 98 0.1 CALM 0 0 0 0 1029.7 1029.8 0.0
30/12:00am 6.4 5.5 6.1 98 0.1 CALM 0 0 0 0 1029.9 1030.0 0.0
 
Date/Time
EST
Temp
°C
App
Temp
°C
Dew
Point
Rel
Hum
%
Delta-T
°C
Wind Press
QNH
hPa
Press
MSL
hPa
Rain
since 9 am
mm
Dir
 
Spd
km/h
Gust
km/h
Spd
kts
Gust
kts
29/11:44pm 6.4 5.5 6.0 97 0.2 CALM 0 0 0 0 1030.0 1030.1 0.0
29/11:41pm 6.5 5.6 6.1 97 0.2 CALM 0 0 0 0 1030.0 1030.1 0.0
29/11:38pm 6.6 5.7 6.0 96 0.3 CALM 0 0 0 0 1030.1 1030.2 0.0
29/11:30pm 7.1 6.4 6.8 98 0.1 CALM 0 0 0 0 1030.2 1030.3 0.0
29/11:09pm 7.8 7.2 7.5 98 0.1 CALM 0 0 0 0 1030.4 1030.5 0.0
29/11:00pm 7.7 7.1 7.4 98 0.1 CALM 0 0 0 0 1030.5 1030.6 0.0
29/10:58pm 7.9 7.3 7.6 98 0.1 CALM 0 0 0 0 1030.6 1030.7 0.0
29/10:50pm 8.4 8.0 8.1 98 0.1 CALM 0 0 0 0 1030.6 1030.7 0.0
29/10:30pm 8.0 7.5 7.7 98 0.1 CALM 0 0 0 0 1030.6 1030.7 0.0
29/10:01pm 8.5 8.1 8.2 98 0.1 CALM 0 0 0 0 1030.8 1030.9 0.0
29/10:00pm 8.5 8.1 8.2 98 0.1 CALM 0 0 0 0 1030.8 1030.9 0.0
29/09:30pm 9.0 8.7 8.7 98 0.1 CALM 0 0 0 0 1030.8 1030.9 0.0
29/09:00pm 8.8 7.1 8.5 98 0.1 NW 7 7 4 4 1030.7 1030.8 0.0
29/08:37pm 9.0 8.7 8.7 98 0.1 CALM 0 0 0 0 1030.7 1030.8 0.0
29/08:30pm 8.7 8.3 8.1 96 0.3 CALM 0 0 0 0 1030.7 1030.8 0.0
29/08:00pm 10.1 10.0 9.6 97 0.2 CALM 0 0 0 0 1030.7 1030.8 0.0
29/07:52pm 9.9 9.7 9.1 95 0.4 CALM 0 0 0 0 1030.7 1030.8 0.0
29/07:40pm 9.9 9.6 8.8 93 0.5 CALM 0 0 0 0 1030.8 1030.9 0.0
29/07:30pm 10.1 9.9 9.0 93 0.5 CALM 0 0 0 0 1030.8 1030.9 0.0
29/07:00pm 10.8 10.7 9.6 92 0.6 CALM 0 0 0 0 1030.7 1030.8 0.0
29/06:30pm 11.2 11.1 9.6 90 0.8 CALM 0 0 0 0 1030.6 1030.7 0.0
29/06:00pm 11.8 11.1 10.0 89 0.9 NNE 4 6 2 3 1030.3 1030.4 0.0
29/05:30pm 13.0 12.9 9.6 80 1.7 CALM 0 0 0 0 1030.2 1030.3 0.0
29/05:00pm 14.4 13.2 9.6 73 2.5 NE 6 6 3 3 1029.9 1030.0 0.0
29/04:30pm 16.2 15.2 10.3 68 3.1 NE 6 7 3 4 1029.8 1029.9 0.0
29/04:00pm 16.9 15.5 9.6 62 3.8 NE 7 11 4 6 1029.6 1029.7 0.0
29/03:30pm 17.8 16.1 9.9 60 4.2 NNE 9 13 5 7 1029.6 1029.7 0.0
29/03:00pm 17.9 16.6 9.8 59 4.2 E 7 13 4 7 1029.5 1029.6 0.0
29/02:30pm 18.0 16.5 10.4 61 4.1 NE 9 15 5 8 1029.7 1029.8 0.0
29/02:00pm 17.6 15.8 9.5 59 4.2 E 9 13 5 7 1030.0 1030.1 0.0
29/01:30pm 17.7 16.4 10.1 61 4.0 NNE 7 11 4 6 1030.3 1030.4 0.0
29/01:00pm 17.3 17.1 10.4 64 3.6 NE 2 7 1 4 1030.7 1030.8 0.0
29/12:30pm 16.6 16.8 10.7 68 3.1 CALM 0 7 0 4 1031.2 1031.3 0.0
29/12:00pm 15.1 14.3 9.7 70 2.8 SSE 4 7 2 4 1031.8 1031.9 0.0
29/11:30am 14.0 12.8 9.6 75 2.3 SSE 6 7 3 4 1032.6 1032.7 0.0
29/11:00am 12.8 12.7 9.6 81 1.6 CALM 0 6 0 3 1033.3 1033.4 0.0

Other Formats:

Comma delimited format used in spreadsheet applications
http://www.bom.gov.au/fwo/IDN60801/IDN60801.95753.axf

JavaScript Object Notation format (JSON) in row-major order
http://www.bom.gov.au/fwo/IDN60801/IDN60801.95753.json